首页
METAR-TAF:

METAR-TAF

机场 :

New Century AirCenter

奧拉西, 堪薩斯州, 美国

纬度: 38-49-28N, 经度: 094-53-13W, 海拔: 331米

当前天气观测

该预报发布于50分钟前的08:53 UTC
风速12节,风向
温度 1°C
湿度 86%
气压 1022 hPa
能見度: 16.1公里
阴天层高于1500英尺

METAR: KIXD 220853Z AUTO 36012KT 10SM OVC015 01/M01 A3018 RMK AO2 SLP225 60000 T00111011 55008

时间: 03:43 (09:43 UTC)

预报

该预报发布于4小时和20分钟前的05:23 UTC
预报有效从22日的 06点(UTC)到 23日的 06点(UTC)
风速8节,风向
能見度: 10公里
多云层高于2000英尺
多云层高于10000英尺
附近有阵雨
从 22日的 1200点(UTC)
风速8节,风向
能見度: 10公里
散云层高于2000英尺
多云层高于10000英尺
从 22日的 2300点(UTC)
风速5节,风向北转东北
能見度: 6.4公里
阴天层高于5000英尺
小雨, 雪
从 23日的 0500点(UTC)
风速5节,风向东北
能見度: 3.2公里
多云层高于2500英尺
阴天层高于5000英尺
小雪

TAF: KIXD 220523Z 2206/2306 01008KT P6SM VCSH BKN020 BKN100 FM221200 01008KT P6SM SCT020 BKN100 FM222300 02005KT 4SM -RASN OVC050 FM230500 04005KT 2SM -SN BKN025 OVC050

超过4000个机场的气象观测和天气预报(METAR&TAF报告)。

可查询的气象台以黄色和红色小点在地图上表示。

将鼠标移到小点上方,可查看气象台名称。

然后点击查看天气观测和预报。

如需切换地图:点击带黑十字的绿色按钮放大地图;点击带横线的绿色按钮缩小地图;或者点击绿色箭头查看邻近地区的地图。


METAR-TAF: